sensor_id;sensor_type;location;lat;lon;timestamp;temperature;humidity
69464;DHT22;56665;41.106;16.688;2024-01-15T00:02:11;10.49;73.74
69464;DHT22;56665;41.106;16.688;2024-01-15T00:05:15;10.42;74.02
69464;DHT22;56665;41.106;16.688;2024-01-15T00:08:18;10.39;74.24
69464;DHT22;56665;41.106;16.688;2024-01-15T00:11:22;10.33;74.37
69464;DHT22;56665;41.106;16.688;2024-01-15T00:14:26;10.35;74.21
69464;DHT22;56665;41.106;16.688;2024-01-15T00:17:30;10.38;74.30
69464;DHT22;56665;41.106;16.688;2024-01-15T00:20:34;10.33;74.10
69464;DHT22;56665;41.106;16.688;2024-01-15T00:23:42;10.30;74.06
69464;DHT22;56665;41.106;16.688;2024-01-15T00:26:47;10.32;74.04
69464;DHT22;56665;41.106;16.688;2024-01-15T00:29:50;10.33;73.94
69464;DHT22;56665;41.106;16.688;2024-01-15T00:32:55;10.32;73.81
69464;DHT22;56665;41.106;16.688;2024-01-15T00:35:58;10.33;73.83
69464;DHT22;56665;41.106;16.688;2024-01-15T00:39:02;10.35;73.88
69464;DHT22;56665;41.106;16.688;2024-01-15T00:42:08;10.39;73.70
69464;DHT22;56665;41.106;16.688;2024-01-15T00:45:11;10.38;73.75
69464;DHT22;56665;41.106;16.688;2024-01-15T00:48:15;10.42;73.51
69464;DHT22;56665;41.106;16.688;2024-01-15T00:51:19;10.46;73.22
69464;DHT22;56665;41.106;16.688;2024-01-15T00:54:23;10.50;73.12
69464;DHT22;56665;41.106;16.688;2024-01-15T00:57:26;10.55;72.97
69464;DHT22;56665;41.106;16.688;2024-01-15T01:00:30;10.56;72.90
69464;DHT22;56665;41.106;16.688;2024-01-15T01:03:34;10.55;73.10
69464;DHT22;56665;41.106;16.688;2024-01-15T01:06:38;10.57;73.17
69464;DHT22;56665;41.106;16.688;2024-01-15T01:09:42;10.62;73.26
69464;DHT22;56665;41.106;16.688;2024-01-15T01:12:47;10.62;73.37
69464;DHT22;56665;41.106;16.688;2024-01-15T01:15:51;10.69;73.38
69464;DHT22;56665;41.106;16.688;2024-01-15T01:18:54;10.73;73.22
69464;DHT22;56665;41.106;16.688;2024-01-15T01:21:58;10.73;72.97
69464;DHT22;56665;41.106;16.688;2024-01-15T01:25:02;10.79;72.86
69464;DHT22;56665;41.106;16.688;2024-01-15T01:28:05;10.79;73.05
69464;DHT22;56665;41.106;16.688;2024-01-15T01:31:09;10.88;73.17
69464;DHT22;56665;41.106;16.688;2024-01-15T01:34:14;10.93;72.80
69464;DHT22;56665;41.106;16.688;2024-01-15T01:37:18;11.01;73.33
69464;DHT22;56665;41.106;16.688;2024-01-15T01:40:22;11.03;73.41
69464;DHT22;56665;41.106;16.688;2024-01-15T01:43:25;11.04;73.53
69464;DHT22;56665;41.106;16.688;2024-01-15T01:46:29;11.07;73.52
69464;DHT22;56665;41.106;16.688;2024-01-15T01:49:34;11.11;73.17
69464;DHT22;56665;41.106;16.688;2024-01-15T01:52:38;11.12;73.31
69464;DHT22;56665;41.106;16.688;2024-01-15T01:55:42;11.11;73.37
69464;DHT22;56665;41.106;16.688;2024-01-15T01:58:47;11.14;73.60
69464;DHT22;56665;41.106;16.688;2024-01-15T02:01:52;11.17;73.86
69464;DHT22;56665;41.106;16.688;2024-01-15T02:04:57;11.11;73.77
69464;DHT22;56665;41.106;16.688;2024-01-15T02:08:01;11.11;73.70
69464;DHT22;56665;41.106;16.688;2024-01-15T02:11:05;11.12;73.97
69464;DHT22;56665;41.106;16.688;2024-01-15T02:14:09;11.17;74.08
69464;DHT22;56665;41.106;16.688;2024-01-15T02:17:13;11.15;75.21
69464;DHT22;56665;41.106;16.688;2024-01-15T02:20:17;11.11;75.82
69464;DHT22;56665;41.106;16.688;2024-01-15T02:23:21;11.01;76.96
69464;DHT22;56665;41.106;16.688;2024-01-15T02:26:25;10.94;77.27
69464;DHT22;56665;41.106;16.688;2024-01-15T02:29:29;10.90;77.94
69464;DHT22;56665;41.106;16.688;2024-01-15T02:32:32;10.84;78.82
69464;DHT22;56665;41.106;16.688;2024-01-15T02:35:36;10.86;79.05
69464;DHT22;56665;41.106;16.688;2024-01-15T02:38:41;10.79;79.01
69464;DHT22;56665;41.106;16.688;2024-01-15T02:41:45;10.75;80.14
69464;DHT22;56665;41.106;16.688;2024-01-15T02:44:49;10.63;80.82
69464;DHT22;56665;41.106;16.688;2024-01-15T02:47:52;10.56;81.66
69464;DHT22;56665;41.106;16.688;2024-01-15T02:50:56;10.49;82.20
69464;DHT22;56665;41.106;16.688;2024-01-15T02:54:00;10.48;82.44
69464;DHT22;56665;41.106;16.688;2024-01-15T02:57:03;10.46;82.48
69464;DHT22;56665;41.106;16.688;2024-01-15T03:00:07;10.46;82.73
69464;DHT22;56665;41.106;16.688;2024-01-15T03:03:12;10.45;83.15
69464;DHT22;56665;41.106;16.688;2024-01-15T03:06:15;10.43;83.51
69464;DHT22;56665;41.106;16.688;2024-01-15T03:09:19;10.40;83.54
69464;DHT22;56665;41.106;16.688;2024-01-15T03:12:23;10.38;83.86
69464;DHT22;56665;41.106;16.688;2024-01-15T03:15:26;10.38;84.10
69464;DHT22;56665;41.106;16.688;2024-01-15T03:18:30;10.38;83.68
69464;DHT22;56665;41.106;16.688;2024-01-15T03:21:34;10.38;83.78
69464;DHT22;56665;41.106;16.688;2024-01-15T03:24:39;10.38;84.06
69464;DHT22;56665;41.106;16.688;2024-01-15T03:27:42;10.35;84.44
69464;DHT22;56665;41.106;16.688;2024-01-15T03:30:46;10.36;84.49
69464;DHT22;56665;41.106;16.688;2024-01-15T03:33:50;10.32;84.63
69464;DHT22;56665;41.106;16.688;2024-01-15T03:36:53;10.33;84.90
69464;DHT22;56665;41.106;16.688;2024-01-15T03:39:57;10.32;84.83
69464;DHT22;56665;41.106;16.688;2024-01-15T03:43:01;10.36;84.80
69464;DHT22;56665;41.106;16.688;2024-01-15T03:46:05;10.35;84.92
69464;DHT22;56665;41.106;16.688;2024-01-15T03:49:08;10.36;85.22
69464;DHT22;56665;41.106;16.688;2024-01-15T03:52:12;10.36;85.29
69464;DHT22;56665;41.106;16.688;2024-01-15T03:55:16;10.39;85.36
69464;DHT22;56665;41.106;16.688;2024-01-15T03:58:20;10.42;85.44
69464;DHT22;56665;41.106;16.688;2024-01-15T04:01:23;10.40;85.37
69464;DHT22;56665;41.106;16.688;2024-01-15T04:04:27;10.40;85.70
69464;DHT22;56665;41.106;16.688;2024-01-15T04:07:31;10.38;85.93
69464;DHT22;56665;41.106;16.688;2024-01-15T04:10:34;10.33;86.93
69464;DHT22;56665;41.106;16.688;2024-01-15T04:13:38;10.29;86.98
69464;DHT22;56665;41.106;16.688;2024-01-15T04:16:42;10.24;87.43
69464;DHT22;56665;41.106;16.688;2024-01-15T04:19:46;10.19;87.80
69464;DHT22;56665;41.106;16.688;2024-01-15T04:22:51;10.21;87.87
69464;DHT22;56665;41.106;16.688;2024-01-15T04:25:55;10.22;88.18
69464;DHT22;56665;41.106;16.688;2024-01-15T04:28:59;10.19;88.63
69464;DHT22;56665;41.106;16.688;2024-01-15T04:32:03;10.21;89.08
69464;DHT22;56665;41.106;16.688;2024-01-15T04:35:07;10.24;89.23
69464;DHT22;56665;41.106;16.688;2024-01-15T04:38:10;10.25;89.20
69464;DHT22;56665;41.106;16.688;2024-01-15T04:41:16;10.22;89.16
69464;DHT22;56665;41.106;16.688;2024-01-15T04:44:20;10.17;89.13
69464;DHT22;56665;41.106;16.688;2024-01-15T04:47:23;10.11;89.31
69464;DHT22;56665;41.106;16.688;2024-01-15T04:50:27;10.09;89.39
69464;DHT22;56665;41.106;16.688;2024-01-15T04:53:31;10.09;89.46
69464;DHT22;56665;41.106;16.688;2024-01-15T04:56:34;10.11;89.43
69464;DHT22;56665;41.106;16.688;2024-01-15T04:59:38;10.18;89.57
69464;DHT22;56665;41.106;16.688;2024-01-15T05:02:42;10.18;89.27
69464;DHT22;56665;41.106;16.688;2024-01-15T05:05:46;10.22;89.20
69464;DHT22;56665;41.106;16.688;2024-01-15T05:08:50;10.21;89.02
69464;DHT22;56665;41.106;16.688;2024-01-15T05:11:54;10.22;89.03
69464;DHT22;56665;41.106;16.688;2024-01-15T05:14:58;10.18;88.86
69464;DHT22;56665;41.106;16.688;2024-01-15T05:18:02;10.18;89.04
69464;DHT22;56665;41.106;16.688;2024-01-15T05:21:05;10.19;89.30
69464;DHT22;56665;41.106;16.688;2024-01-15T05:24:09;10.24;88.93
69464;DHT22;56665;41.106;16.688;2024-01-15T05:27:13;10.22;88.53
69464;DHT22;56665;41.106;16.688;2024-01-15T05:30:17;10.19;88.48
69464;DHT22;56665;41.106;16.688;2024-01-15T05:33:22;10.25;88.49
69464;DHT22;56665;41.106;16.688;2024-01-15T05:36:26;10.24;88.37
69464;DHT22;56665;41.106;16.688;2024-01-15T05:39:29;10.25;88.39
69464;DHT22;56665;41.106;16.688;2024-01-15T05:42:33;10.21;88.30
69464;DHT22;56665;41.106;16.688;2024-01-15T05:45:38;10.21;88.48
69464;DHT22;56665;41.106;16.688;2024-01-15T05:48:42;10.21;88.49
69464;DHT22;56665;41.106;16.688;2024-01-15T05:51:46;10.26;88.32
69464;DHT22;56665;41.106;16.688;2024-01-15T05:54:50;10.35;88.05
69464;DHT22;56665;41.106;16.688;2024-01-15T05:57:53;10.38;87.80
69464;DHT22;56665;41.106;16.688;2024-01-15T06:00:57;10.43;87.73
69464;DHT22;56665;41.106;16.688;2024-01-15T06:04:01;10.46;87.82
69464;DHT22;56665;41.106;16.688;2024-01-15T06:07:05;10.48;87.74
69464;DHT22;56665;41.106;16.688;2024-01-15T06:10:10;10.48;88.00
69464;DHT22;56665;41.106;16.688;2024-01-15T06:13:13;10.46;88.04
69464;DHT22;56665;41.106;16.688;2024-01-15T06:16:17;10.50;88.17
69464;DHT22;56665;41.106;16.688;2024-01-15T06:19:23;10.60;88.16
69464;DHT22;56665;41.106;16.688;2024-01-15T06:22:27;10.62;88.13
69464;DHT22;56665;41.106;16.688;2024-01-15T06:25:30;10.69;88.02
69464;DHT22;56665;41.106;16.688;2024-01-15T06:28:34;10.73;87.79
69464;DHT22;56665;41.106;16.688;2024-01-15T06:31:38;10.76;87.89
69464;DHT22;56665;41.106;16.688;2024-01-15T06:34:42;10.77;87.83
69464;DHT22;56665;41.106;16.688;2024-01-15T06:37:45;10.84;88.00
69464;DHT22;56665;41.106;16.688;2024-01-15T06:40:49;10.91;87.68
69464;DHT22;56665;41.106;16.688;2024-01-15T06:43:53;11.00;87.48
69464;DHT22;56665;41.106;16.688;2024-01-15T06:46:56;11.01;86.97
69464;DHT22;56665;41.106;16.688;2024-01-15T06:50:05;11.06;87.13
69464;DHT22;56665;41.106;16.688;2024-01-15T06:53:10;11.11;86.73
69464;DHT22;56665;41.106;16.688;2024-01-15T06:56:14;11.18;86.44
69464;DHT22;56665;41.106;16.688;2024-01-15T06:59:17;11.22;86.24
69464;DHT22;56665;41.106;16.688;2024-01-15T07:02:21;11.29;85.90
69464;DHT22;56665;41.106;16.688;2024-01-15T07:05:25;11.37;85.46
69464;DHT22;56665;41.106;16.688;2024-01-15T07:08:29;11.45;84.89
69464;DHT22;56665;41.106;16.688;2024-01-15T07:11:33;11.49;84.44
69464;DHT22;56665;41.106;16.688;2024-01-15T07:14:37;11.55;84.28
69464;DHT22;56665;41.106;16.688;2024-01-15T07:17:41;11.59;83.72
69464;DHT22;56665;41.106;16.688;2024-01-15T07:20:45;11.61;83.68
69464;DHT22;56665;41.106;16.688;2024-01-15T07:23:49;11.63;83.52
69464;DHT22;56665;41.106;16.688;2024-01-15T07:26:53;11.63;83.38
69464;DHT22;56665;41.106;16.688;2024-01-15T07:29:57;11.66;83.38
69464;DHT22;56665;41.106;16.688;2024-01-15T07:33:01;11.70;83.16
69464;DHT22;56665;41.106;16.688;2024-01-15T07:36:08;11.69;83.14
69464;DHT22;56665;41.106;16.688;2024-01-15T07:39:12;11.72;84.09
69464;DHT22;56665;41.106;16.688;2024-01-15T07:42:15;11.76;84.04
69464;DHT22;56665;41.106;16.688;2024-01-15T07:45:19;11.70;83.77
69464;DHT22;56665;41.106;16.688;2024-01-15T07:48:23;11.66;83.97
69464;DHT22;56665;41.106;16.688;2024-01-15T07:51:27;11.66;83.98
69464;DHT22;56665;41.106;16.688;2024-01-15T07:54:31;11.70;83.54
69464;DHT22;56665;41.106;16.688;2024-01-15T07:57:35;11.73;84.47
69464;DHT22;56665;41.106;16.688;2024-01-15T08:00:41;11.87;84.01
69464;DHT22;56665;41.106;16.688;2024-01-15T08:03:45;12.01;83.68
69464;DHT22;56665;41.106;16.688;2024-01-15T08:06:49;12.17;83.41
69464;DHT22;56665;41.106;16.688;2024-01-15T08:09:53;12.21;83.08
69464;DHT22;56665;41.106;16.688;2024-01-15T08:12:56;12.34;82.71
69464;DHT22;56665;41.106;16.688;2024-01-15T08:16:00;12.36;82.45
69464;DHT22;56665;41.106;16.688;2024-01-15T08:19:04;12.33;82.73
69464;DHT22;56665;41.106;16.688;2024-01-15T08:22:08;12.41;82.62
69464;DHT22;56665;41.106;16.688;2024-01-15T08:25:13;12.52;83.18
69464;DHT22;56665;41.106;16.688;2024-01-15T08:28:17;12.62;81.65
69464;DHT22;56665;41.106;16.688;2024-01-15T08:31:20;12.64;81.08
69464;DHT22;56665;41.106;16.688;2024-01-15T08:34:24;12.48;81.14
69464;DHT22;56665;41.106;16.688;2024-01-15T08:37:27;12.48;81.37
69464;DHT22;56665;41.106;16.688;2024-01-15T08:40:31;12.61;81.20
69464;DHT22;56665;41.106;16.688;2024-01-15T08:43:35;12.61;80.70
69464;DHT22;56665;41.106;16.688;2024-01-15T08:46:39;12.79;81.53
69464;DHT22;56665;41.106;16.688;2024-01-15T08:49:43;12.85;79.57
69464;DHT22;56665;41.106;16.688;2024-01-15T08:52:48;12.99;79.24
69464;DHT22;56665;41.106;16.688;2024-01-15T08:55:52;12.99;78.02
69464;DHT22;56665;41.106;16.688;2024-01-15T08:58:56;12.96;78.15
69464;DHT22;56665;41.106;16.688;2024-01-15T09:01:59;12.89;78.46
69464;DHT22;56665;41.106;16.688;2024-01-15T09:05:03;12.86;79.25
69464;DHT22;56665;41.106;16.688;2024-01-15T09:08:08;12.91;78.77
69464;DHT22;56665;41.106;16.688;2024-01-15T09:11:11;12.96;77.97
69464;DHT22;56665;41.106;16.688;2024-01-15T09:14:15;13.06;77.77
69464;DHT22;56665;41.106;16.688;2024-01-15T09:17:20;13.16;77.52
69464;DHT22;56665;41.106;16.688;2024-01-15T09:20:46;13.31;77.16
69464;DHT22;56665;41.106;16.688;2024-01-15T09:23:50;13.37;76.60
69464;DHT22;56665;41.106;16.688;2024-01-15T09:26:53;13.36;76.99
69464;DHT22;56665;41.106;16.688;2024-01-15T09:29:57;13.37;76.76
69464;DHT22;56665;41.106;16.688;2024-01-15T09:33:01;13.47;77.53
69464;DHT22;56665;41.106;16.688;2024-01-15T09:36:05;13.58;76.27
69464;DHT22;56665;41.106;16.688;2024-01-15T09:39:09;13.96;79.76
69464;DHT22;56665;41.106;16.688;2024-01-15T09:42:14;13.92;75.27
69464;DHT22;56665;41.106;16.688;2024-01-15T09:45:18;13.98;75.50
69464;DHT22;56665;41.106;16.688;2024-01-15T09:48:22;14.10;75.10
69464;DHT22;56665;41.106;16.688;2024-01-15T09:51:25;14.08;74.65
69464;DHT22;56665;41.106;16.688;2024-01-15T09:54:29;14.06;74.86
69464;DHT22;56665;41.106;16.688;2024-01-15T09:57:33;13.99;74.71
69464;DHT22;56665;41.106;16.688;2024-01-15T10:00:37;13.96;74.58
69464;DHT22;56665;41.106;16.688;2024-01-15T10:03:44;13.94;74.59
69464;DHT22;56665;41.106;16.688;2024-01-15T10:06:51;13.99;74.89
69464;DHT22;56665;41.106;16.688;2024-01-15T10:09:55;14.16;75.12
69464;DHT22;56665;41.106;16.688;2024-01-15T10:12:59;14.30;73.72
69464;DHT22;56665;41.106;16.688;2024-01-15T10:16:04;14.50;73.36
69464;DHT22;56665;41.106;16.688;2024-01-15T10:19:09;14.56;72.80
69464;DHT22;56665;41.106;16.688;2024-01-15T10:22:13;14.55;72.51
69464;DHT22;56665;41.106;16.688;2024-01-15T10:25:17;14.66;72.71
69464;DHT22;56665;41.106;16.688;2024-01-15T10:28:27;14.76;71.63
69464;DHT22;56665;41.106;16.688;2024-01-15T10:31:32;15.08;70.80
69464;DHT22;56665;41.106;16.688;2024-01-15T10:34:40;15.63;68.72
69464;DHT22;56665;41.106;16.688;2024-01-15T10:37:44;16.00;67.88
69464;DHT22;56665;41.106;16.688;2024-01-15T10:40:51;16.34;67.02
69464;DHT22;56665;41.106;16.688;2024-01-15T10:43:54;16.34;66.72
69464;DHT22;56665;41.106;16.688;2024-01-15T10:46:58;16.24;67.26
69464;DHT22;56665;41.106;16.688;2024-01-15T10:50:02;16.06;67.35
69464;DHT22;56665;41.106;16.688;2024-01-15T10:53:07;16.18;67.53
69464;DHT22;56665;41.106;16.688;2024-01-15T10:56:12;16.21;67.39
69464;DHT22;56665;41.106;16.688;2024-01-15T10:59:16;16.24;67.21
69464;DHT22;56665;41.106;16.688;2024-01-15T11:02:20;16.11;67.86
69464;DHT22;56665;41.106;16.688;2024-01-15T11:05:25;15.91;68.38
69464;DHT22;56665;41.106;16.688;2024-01-15T11:08:29;16.06;68.35
69464;DHT22;56665;41.106;16.688;2024-01-15T11:11:35;16.28;67.42
69464;DHT22;56665;41.106;16.688;2024-01-15T11:14:47;16.55;67.22
69464;DHT22;56665;41.106;16.688;2024-01-15T11:17:58;16.55;66.83
69464;DHT22;56665;41.106;16.688;2024-01-15T11:24:41;16.49;66.72
69464;DHT22;56665;41.106;16.688;2024-01-15T11:27:54;16.42;67.27
69464;DHT22;56665;41.106;16.688;2024-01-15T11:30:59;16.48;67.22
69464;DHT22;56665;41.106;16.688;2024-01-15T11:34:03;16.69;66.85
69464;DHT22;56665;41.106;16.688;2024-01-15T11:37:07;16.76;67.14
69464;DHT22;56665;41.106;16.688;2024-01-15T11:40:10;16.72;67.72
69464;DHT22;56665;41.106;16.688;2024-01-15T11:43:15;16.82;67.58
69464;DHT22;56665;41.106;16.688;2024-01-15T11:46:26;16.66;68.29
69464;DHT22;56665;41.106;16.688;2024-01-15T11:50:02;16.58;68.75
69464;DHT22;56665;41.106;16.688;2024-01-15T11:53:16;16.46;68.80
69464;DHT22;56665;41.106;16.688;2024-01-15T11:56:22;16.52;69.05
69464;DHT22;56665;41.106;16.688;2024-01-15T11:59:26;16.75;68.53
69464;DHT22;56665;41.106;16.688;2024-01-15T12:02:30;16.99;68.47
69464;DHT22;56665;41.106;16.688;2024-01-15T12:05:37;16.96;67.88
69464;DHT22;56665;41.106;16.688;2024-01-15T12:08:40;16.82;67.41
69464;DHT22;56665;41.106;16.688;2024-01-15T12:11:51;16.77;67.86
69464;DHT22;56665;41.106;16.688;2024-01-15T12:14:58;16.77;68.59
69464;DHT22;56665;41.106;16.688;2024-01-15T12:18:02;16.66;67.96
69464;DHT22;56665;41.106;16.688;2024-01-15T12:21:06;16.75;68.60
69464;DHT22;56665;41.106;16.688;2024-01-15T12:24:10;16.66;68.42
69464;DHT22;56665;41.106;16.688;2024-01-15T12:27:14;16.56;68.54
69464;DHT22;56665;41.106;16.688;2024-01-15T12:30:18;16.58;68.44
69464;DHT22;56665;41.106;16.688;2024-01-15T12:33:21;16.79;68.68
69464;DHT22;56665;41.106;16.688;2024-01-15T12:36:25;16.80;68.54
69464;DHT22;56665;41.106;16.688;2024-01-15T12:39:30;16.86;68.25
69464;DHT22;56665;41.106;16.688;2024-01-15T12:42:36;16.85;68.24
69464;DHT22;56665;41.106;16.688;2024-01-15T12:45:40;16.95;68.62
69464;DHT22;56665;41.106;16.688;2024-01-15T12:48:44;16.96;68.15
69464;DHT22;56665;41.106;16.688;2024-01-15T12:51:57;17.00;68.51
69464;DHT22;56665;41.106;16.688;2024-01-15T12:55:00;16.93;68.35
69464;DHT22;56665;41.106;16.688;2024-01-15T12:58:04;16.69;68.33
69464;DHT22;56665;41.106;16.688;2024-01-15T13:01:08;16.59;67.83
69464;DHT22;56665;41.106;16.688;2024-01-15T13:04:20;16.48;68.29
69464;DHT22;56665;41.106;16.688;2024-01-15T13:07:24;16.51;68.19
69464;DHT22;56665;41.106;16.688;2024-01-15T13:10:28;16.52;68.39
69464;DHT22;56665;41.106;16.688;2024-01-15T13:13:33;16.60;68.34
69464;DHT22;56665;41.106;16.688;2024-01-15T13:16:38;16.52;68.56
69464;DHT22;56665;41.106;16.688;2024-01-15T13:19:42;16.53;68.93
69464;DHT22;56665;41.106;16.688;2024-01-15T13:22:47;16.65;69.92
69464;DHT22;56665;41.106;16.688;2024-01-15T13:25:50;16.66;70.34
69464;DHT22;56665;41.106;16.688;2024-01-15T13:28:54;16.56;69.32
69464;DHT22;56665;41.106;16.688;2024-01-15T13:31:58;16.48;69.50
69464;DHT22;56665;41.106;16.688;2024-01-15T13:35:04;16.35;69.99
69464;DHT22;56665;41.106;16.688;2024-01-15T13:38:11;16.42;71.12
69464;DHT22;56665;41.106;16.688;2024-01-15T13:41:15;16.55;70.98
69464;DHT22;56665;41.106;16.688;2024-01-15T13:44:18;16.82;70.19
69464;DHT22;56665;41.106;16.688;2024-01-15T13:47:22;17.11;69.36
69464;DHT22;56665;41.106;16.688;2024-01-15T13:50:26;17.47;68.04
69464;DHT22;56665;41.106;16.688;2024-01-15T13:53:30;17.47;68.33
69464;DHT22;56665;41.106;16.688;2024-01-15T13:56:34;17.13;68.85
69464;DHT22;56665;41.106;16.688;2024-01-15T13:59:39;16.82;69.54
69464;DHT22;56665;41.106;16.688;2024-01-15T14:02:43;16.59;70.40
69464;DHT22;56665;41.106;16.688;2024-01-15T14:05:46;16.48;70.97
69464;DHT22;56665;41.106;16.688;2024-01-15T14:08:50;16.22;71.65
69464;DHT22;56665;41.106;16.688;2024-01-15T14:11:54;16.13;71.64
69464;DHT22;56665;41.106;16.688;2024-01-15T14:14:58;16.04;71.92
69464;DHT22;56665;41.106;16.688;2024-01-15T14:18:03;16.06;71.67
69464;DHT22;56665;41.106;16.688;2024-01-15T14:21:06;16.17;71.38
69464;DHT22;56665;41.106;16.688;2024-01-15T14:24:10;16.35;70.87
69464;DHT22;56665;41.106;16.688;2024-01-15T14:27:14;16.53;70.12
69464;DHT22;56665;41.106;16.688;2024-01-15T14:30:18;16.48;70.15
69464;DHT22;56665;41.106;16.688;2024-01-15T14:33:22;16.29;70.30
69464;DHT22;56665;41.106;16.688;2024-01-15T14:36:26;16.08;70.64
69464;DHT22;56665;41.106;16.688;2024-01-15T14:39:30;15.88;71.14
69464;DHT22;56665;41.106;16.688;2024-01-15T14:42:37;16.00;71.14
69464;DHT22;56665;41.106;16.688;2024-01-15T14:45:41;15.93;71.40
69464;DHT22;56665;41.106;16.688;2024-01-15T14:48:45;15.74;71.90
69464;DHT22;56665;41.106;16.688;2024-01-15T14:51:50;15.69;72.24
69464;DHT22;56665;41.106;16.688;2024-01-15T14:54:54;15.62;72.55
69464;DHT22;56665;41.106;16.688;2024-01-15T14:57:57;15.53;72.88
69464;DHT22;56665;41.106;16.688;2024-01-15T15:01:01;15.42;73.36
69464;DHT22;56665;41.106;16.688;2024-01-15T15:04:05;15.38;73.55
69464;DHT22;56665;41.106;16.688;2024-01-15T15:07:09;15.35;73.76
69464;DHT22;56665;41.106;16.688;2024-01-15T15:10:14;15.31;73.91
69464;DHT22;56665;41.106;16.688;2024-01-15T15:13:18;15.26;73.84
69464;DHT22;56665;41.106;16.688;2024-01-15T15:16:21;15.20;73.89
69464;DHT22;56665;41.106;16.688;2024-01-15T15:19:25;15.22;74.10
69464;DHT22;56665;41.106;16.688;2024-01-15T15:22:29;15.25;74.12
69464;DHT22;56665;41.106;16.688;2024-01-15T15:25:32;15.26;74.32
69464;DHT22;56665;41.106;16.688;2024-01-15T15:28:36;15.25;74.54
69464;DHT22;56665;41.106;16.688;2024-01-15T15:31:40;15.23;74.91
69464;DHT22;56665;41.106;16.688;2024-01-15T15:34:44;15.18;75.01
69464;DHT22;56665;41.106;16.688;2024-01-15T15:37:48;15.04;75.20
69464;DHT22;56665;41.106;16.688;2024-01-15T15:40:52;14.94;74.50
69464;DHT22;56665;41.106;16.688;2024-01-15T15:43:55;14.84;74.40
69464;DHT22;56665;41.106;16.688;2024-01-15T15:46:59;14.74;74.54
69464;DHT22;56665;41.106;16.688;2024-01-15T15:50:04;14.59;74.85
69464;DHT22;56665;41.106;16.688;2024-01-15T15:53:07;14.43;74.80
69464;DHT22;56665;41.106;16.688;2024-01-15T15:56:12;14.29;75.43
69464;DHT22;56665;41.106;16.688;2024-01-15T15:59:16;14.18;75.65
69464;DHT22;56665;41.106;16.688;2024-01-15T16:02:21;14.04;75.89
69464;DHT22;56665;41.106;16.688;2024-01-15T16:05:25;13.91;76.25
69464;DHT22;56665;41.106;16.688;2024-01-15T16:08:29;13.81;76.48
69464;DHT22;56665;41.106;16.688;2024-01-15T16:11:33;13.75;76.61
69464;DHT22;56665;41.106;16.688;2024-01-15T16:14:37;13.71;76.55
69464;DHT22;56665;41.106;16.688;2024-01-15T16:17:40;13.71;76.68
69464;DHT22;56665;41.106;16.688;2024-01-15T16:20:45;13.70;76.65
69464;DHT22;56665;41.106;16.688;2024-01-15T16:23:48;13.67;76.51
69464;DHT22;56665;41.106;16.688;2024-01-15T16:26:53;13.73;76.39
69464;DHT22;56665;41.106;16.688;2024-01-15T16:29:57;13.73;76.50
69464;DHT22;56665;41.106;16.688;2024-01-15T16:33:00;13.71;76.61
69464;DHT22;56665;41.106;16.688;2024-01-15T16:36:04;13.68;76.77
69464;DHT22;56665;41.106;16.688;2024-01-15T16:39:08;13.61;76.96
69464;DHT22;56665;41.106;16.688;2024-01-15T16:42:12;13.58;77.07
69464;DHT22;56665;41.106;16.688;2024-01-15T16:45:15;13.59;77.03
69464;DHT22;56665;41.106;16.688;2024-01-15T16:48:19;13.57;77.06
69464;DHT22;56665;41.106;16.688;2024-01-15T16:51:23;13.58;77.00
69464;DHT22;56665;41.106;16.688;2024-01-15T16:54:27;13.58;77.10
69464;DHT22;56665;41.106;16.688;2024-01-15T16:57:31;13.58;77.16
69464;DHT22;56665;41.106;16.688;2024-01-15T17:00:34;13.54;77.31
69464;DHT22;56665;41.106;16.688;2024-01-15T17:03:39;13.48;77.53
69464;DHT22;56665;41.106;16.688;2024-01-15T17:06:43;13.44;77.71
69464;DHT22;56665;41.106;16.688;2024-01-15T17:09:46;13.41;78.04
69464;DHT22;56665;41.106;16.688;2024-01-15T17:12:50;13.37;78.33
69464;DHT22;56665;41.106;16.688;2024-01-15T17:15:54;13.27;78.58
69464;DHT22;56665;41.106;16.688;2024-01-15T17:18:58;13.22;78.62
69464;DHT22;56665;41.106;16.688;2024-01-15T17:22:02;13.16;78.65
69464;DHT22;56665;41.106;16.688;2024-01-15T17:25:06;13.09;78.68
69464;DHT22;56665;41.106;16.688;2024-01-15T17:28:10;13.05;78.64
69464;DHT22;56665;41.106;16.688;2024-01-15T17:31:14;13.03;78.73
69464;DHT22;56665;41.106;16.688;2024-01-15T17:34:18;12.99;78.62
69464;DHT22;56665;41.106;16.688;2024-01-15T17:37:21;12.99;78.72
69464;DHT22;56665;41.106;16.688;2024-01-15T17:40:25;12.99;78.78
69464;DHT22;56665;41.106;16.688;2024-01-15T17:43:29;12.98;78.66
69464;DHT22;56665;41.106;16.688;2024-01-15T17:46:33;12.96;79.12
69464;DHT22;56665;41.106;16.688;2024-01-15T17:49:37;12.91;79.00
69464;DHT22;56665;41.106;16.688;2024-01-15T17:52:41;12.86;78.87
69464;DHT22;56665;41.106;16.688;2024-01-15T17:55:44;12.83;78.79
69464;DHT22;56665;41.106;16.688;2024-01-15T17:58:48;12.80;78.66
69464;DHT22;56665;41.106;16.688;2024-01-15T18:01:52;12.79;78.61
69464;DHT22;56665;41.106;16.688;2024-01-15T18:04:57;12.83;78.35
69464;DHT22;56665;41.106;16.688;2024-01-15T18:08:01;12.86;78.01
69464;DHT22;56665;41.106;16.688;2024-01-15T18:11:05;12.89;77.70
69464;DHT22;56665;41.106;16.688;2024-01-15T18:14:09;12.93;77.44
69464;DHT22;56665;41.106;16.688;2024-01-15T18:17:12;12.93;77.13
69464;DHT22;56665;41.106;16.688;2024-01-15T18:20:16;12.98;77.01
69464;DHT22;56665;41.106;16.688;2024-01-15T18:23:21;13.00;76.66
69464;DHT22;56665;41.106;16.688;2024-01-15T18:26:25;13.02;76.61
69464;DHT22;56665;41.106;16.688;2024-01-15T18:29:29;13.03;76.57
69464;DHT22;56665;41.106;16.688;2024-01-15T18:32:32;13.05;76.27
69464;DHT22;56665;41.106;16.688;2024-01-15T18:35:36;13.02;76.04
69464;DHT22;56665;41.106;16.688;2024-01-15T18:38:40;12.95;75.97
69464;DHT22;56665;41.106;16.688;2024-01-15T18:41:44;12.93;75.97
69464;DHT22;56665;41.106;16.688;2024-01-15T18:44:48;12.98;75.86
69464;DHT22;56665;41.106;16.688;2024-01-15T18:47:52;13.00;75.71
69464;DHT22;56665;41.106;16.688;2024-01-15T18:50:56;13.03;75.29
69464;DHT22;56665;41.106;16.688;2024-01-15T18:54:00;13.10;74.77
69464;DHT22;56665;41.106;16.688;2024-01-15T18:57:04;13.10;74.79
69464;DHT22;56665;41.106;16.688;2024-01-15T19:00:10;13.10;74.79
69464;DHT22;56665;41.106;16.688;2024-01-15T19:03:14;13.06;75.16
69464;DHT22;56665;41.106;16.688;2024-01-15T19:06:18;13.03;75.26
69464;DHT22;56665;41.106;16.688;2024-01-15T19:09:22;13.02;74.96